Terminal Aerodrome Forecast
Issued by NWS

Home | Current Version | Previous Version | Text Only | Print | Product List | Glossary On
Versions: 1 2 3 4 5 6 7 8 9 10 11 12 13 14 15
000
FTUS45 KGJT 282320
TAFTEX
TAF
KTEX 282320Z 2900/2924 15012G15KT P6SM VCSH SCT060 SCT070 BKN090
     FM290200 05005KT P6SM SCT200
     FM290900 16010KT P6SM SCT250
     FM291400 20004KT P6SM SCT250
     FM291700 27005KT P6SM VCSH BKN250
     FM292300 11006KT P6SM VCSH BKN150=

USA.gov is the U.S. government's official web portal to all federal, state and local government web resources and services.